Time;durP1;ratioP1;P1;durP2;ratioP2;P2;SDS_P1;SDS_P2;PMS_P1;PMS_P2;Temp;Humidity;BMP_temperature;BMP_pressure;BME280_temperature;BME280_humidity;BME280_pressure;Samples;Min_cycle;Max_cycle;Signal;HPM_P1;HPM_P2
2022/07/24 00:01:10;;;;;;;4.00;3.60;;;21.10;95.30;;;;;;5105873;28;20019;-36
2022/07/24 00:03:35;;;;;;;4.15;3.75;;;21.10;95.40;;;;;;5105615;28;20028;-36
2022/07/24 00:06:01;;;;;;;4.03;3.67;;;21.00;95.40;;;;;;5105984;28;20031;-35
2022/07/24 00:08:26;;;;;;;3.97;3.58;;;21.00;95.50;;;;;;5105157;28;20148;-34
2022/07/24 00:10:52;;;;;;;4.15;3.72;;;21.00;95.50;;;;;;5106207;28;20027;-36
2022/07/24 00:13:17;;;;;;;3.80;3.50;;;21.00;95.60;;;;;;5105861;28;20483;-34
2022/07/24 00:15:43;;;;;;;5.88;3.85;;;21.00;95.60;;;;;;5105523;28;20015;-34
2022/07/24 00:18:08;;;;;;;5.20;4.22;;;21.00;95.70;;;;;;5106544;28;20028;-34
2022/07/24 00:20:34;;;;;;;4.43;4.03;;;21.00;95.80;;;;;;5104765;28;20497;-34
2022/07/24 00:23:00;;;;;;;4.65;4.25;;;20.90;95.80;;;;;;5105954;28;20381;-34
2022/07/24 00:25:25;;;;;;;4.00;3.70;;;20.90;95.90;;;;;;5105520;28;20147;-35
2022/07/24 00:27:51;;;;;;;4.68;4.18;;;20.90;96.00;;;;;;5105960;28;20046;-34
2022/07/24 00:30:16;;;;;;;4.70;4.30;;;20.90;96.10;;;;;;5105387;28;20547;-34
2022/07/24 00:32:42;;;;;;;4.80;4.30;;;20.90;96.20;;;;;;5105690;28;20077;-36
2022/07/24 00:35:07;;;;;;;4.72;4.32;;;20.80;96.30;;;;;;5105567;28;20096;-34
2022/07/24 00:37:33;;;;;;;4.97;4.03;;;20.80;96.30;;;;;;5105814;28;20554;-34
2022/07/24 00:39:58;;;;;;;4.03;3.55;;;20.80;96.40;;;;;;5106014;28;20069;-34
2022/07/24 00:42:24;;;;;;;4.63;4.22;;;20.80;96.40;;;;;;5104264;28;20585;-35
2022/07/24 00:44:52;;;;;;;4.60;4.20;;;20.70;96.40;;;;;;5106671;28;20467;-35
2022/07/24 00:47:17;;;;;;;4.72;4.30;;;20.70;96.60;;;;;;5105698;28;20058;-35
2022/07/24 00:49:43;;;;;;;4.88;4.40;;;20.70;96.60;;;;;;5105199;28;20444;-33
2022/07/24 00:52:08;;;;;;;4.60;4.20;;;20.60;96.70;;;;;;5106521;28;20438;-35
2022/07/24 00:54:34;;;;;;;5.32;4.55;;;20.60;96.70;;;;;;5105322;28;20073;-35
2022/07/24 00:56:59;;;;;;;5.25;4.75;;;20.60;96.70;;;;;;5104798;28;20026;-34
2022/07/24 00:59:25;;;;;;;5.53;4.70;;;20.60;96.80;;;;;;5104925;28;20023;-34
2022/07/24 01:01:51;;;;;;;4.30;3.90;;;20.60;96.90;;;;;;5105859;28;20307;-36
2022/07/24 01:04:18;;;;;;;4.95;4.45;;;20.50;96.90;;;;;;5104388;28;20444;-36
2022/07/24 01:06:45;;;;;;;5.15;4.65;;;20.50;96.90;;;;;;5104569;28;20479;-35
2022/07/24 01:09:11;;;;;;;4.68;4.28;;;20.50;97.00;;;;;;5106037;28;20042;-34
2022/07/24 01:11:38;;;;;;;5.13;4.38;;;20.50;97.00;;;;;;5103987;28;20034;-34
2022/07/24 01:14:04;;;;;;;5.70;4.63;;;20.50;97.10;;;;;;5106177;28;20024;-36
2022/07/24 01:16:30;;;;;;;5.45;4.93;;;20.40;97.10;;;;;;5105099;28;20518;-35
2022/07/24 01:18:55;;;;;;;5.38;4.88;;;20.40;97.10;;;;;;5104608;28;20385;-34
2022/07/24 01:21:21;;;;;;;6.97;5.15;;;20.40;97.30;;;;;;5105481;28;20016;-34
2022/07/24 01:23:46;;;;;;;5.30;4.80;;;20.40;97.30;;;;;;5105310;28;20452;-36
2022/07/24 01:26:12;;;;;;;5.90;5.15;;;20.40;97.40;;;;;;5105209;28;20058;-35
2022/07/24 01:28:37;;;;;;;5.75;5.22;;;20.40;97.50;;;;;;5104959;28;20030;-35
2022/07/24 01:31:04;;;;;;;6.63;5.57;;;20.40;97.50;;;;;;5104285;28;20118;-35
2022/07/24 01:33:29;;;;;;;5.78;5.18;;;20.40;97.60;;;;;;5104817;28;20028;-35
2022/07/24 01:35:55;;;;;;;5.80;5.20;;;20.40;97.60;;;;;;5105135;28;20046;-35
2022/07/24 01:38:21;;;;;;;5.85;5.03;;;20.40;97.70;;;;;;5103783;28;20027;-35
2022/07/24 01:40:46;;;;;;;5.30;4.80;;;20.30;97.70;;;;;;5104733;28;20482;-35
2022/07/24 01:43:12;;;;;;;5.50;5.00;;;20.30;97.70;;;;;;5105214;28;20055;-35
2022/07/24 01:45:37;;;;;;;6.95;5.40;;;20.30;97.80;;;;;;5103837;28;20027;-37
2022/07/24 01:48:04;;;;;;;4.95;4.43;;;20.30;97.80;;;;;;5104699;28;20027;-35
2022/07/24 01:50:30;;;;;;;4.72;4.30;;;20.20;97.80;;;;;;5104556;28;20035;-35
2022/07/24 01:52:56;;;;;;;5.13;4.63;;;20.20;97.80;;;;;;5104274;28;20084;-35
2022/07/24 01:55:22;;;;;;;5.72;4.90;;;20.20;97.80;;;;;;5104142;28;20020;-36
2022/07/24 01:57:48;;;;;;;6.85;5.10;;;20.20;97.90;;;;;;5104744;28;20023;-35
2022/07/24 02:00:15;;;;;;;5.00;4.50;;;20.20;97.90;;;;;;5104022;28;20031;-36
2022/07/24 02:02:43;;;;;;;5.60;4.85;;;20.10;97.90;;;;;;5104712;28;20038;-35
2022/07/24 02:05:09;;;;;;;5.00;4.60;;;20.10;97.90;;;;;;5105579;28;20497;-35
2022/07/24 02:07:35;;;;;;;4.63;4.22;;;20.10;97.90;;;;;;5103072;28;20107;-35
2022/07/24 02:10:02;;;;;;;5.40;4.90;;;20.10;98.00;;;;;;5104753;28;20111;-35
2022/07/24 02:12:27;;;;;;;5.32;4.82;;;20.10;98.00;;;;;;5104136;28;20496;-35
2022/07/24 02:14:52;;;;;;;5.10;4.60;;;20.00;98.00;;;;;;5104108;28;20514;-36
2022/07/24 02:17:18;;;;;;;5.65;4.70;;;20.00;98.10;;;;;;5104845;28;20035;-36
2022/07/24 02:19:43;;;;;;;5.07;4.40;;;20.00;98.10;;;;;;5107891;28;20031;-34
2022/07/24 02:22:09;;;;;;;5.97;5.38;;;20.00;98.10;;;;;;5107800;28;20023;-35
2022/07/24 02:24:34;;;;;;;5.45;4.95;;;20.00;98.10;;;;;;5106052;28;20044;-35
2022/07/24 02:27:00;;;;;;;5.20;4.70;;;20.00;98.20;;;;;;5098715;28;20526;-35
2022/07/24 02:29:26;;;;;;;5.72;5.13;;;20.00;98.20;;;;;;5101059;28;20027;-35
2022/07/24 02:31:52;;;;;;;5.40;4.90;;;20.00;98.20;;;;;;5108418;28;20055;-34
2022/07/24 02:34:17;;;;;;;6.07;4.97;;;19.90;98.20;;;;;;5107253;28;20051;-34
2022/07/24 02:36:43;;;;;;;4.88;4.45;;;19.90;98.30;;;;;;5108758;28;20155;-34
2022/07/24 02:39:09;;;;;;;5.60;4.80;;;19.90;98.30;;;;;;5108451;28;20463;-34
2022/07/24 02:41:34;;;;;;;5.05;4.65;;;19.90;98.30;;;;;;5107441;28;20069;-35
2022/07/24 02:44:00;;;;;;;6.38;5.13;;;19.90;98.60;;;;;;5107691;28;20543;-35
2022/07/24 02:46:25;;;;;;;5.57;5.00;;;19.90;98.40;;;;;;5107112;28;20077;-34
2022/07/24 02:48:51;;;;;;;5.75;5.20;;;19.90;98.40;;;;;;5107325;28;20027;-35
2022/07/24 02:51:16;;;;;;;6.57;4.63;;;19.90;98.40;;;;;;5107540;28;20020;-34
2022/07/24 02:53:42;;;;;;;5.47;4.65;;;19.90;98.50;;;;;;5107031;28;20498;-34
2022/07/24 02:56:08;;;;;;;5.20;4.70;;;19.80;98.50;;;;;;5106999;28;20465;-35
2022/07/24 02:58:34;;;;;;;5.38;4.93;;;19.80;98.50;;;;;;5107522;28;20507;-34
2022/07/24 03:00:59;;;;;;;5.32;4.82;;;19.80;98.60;;;;;;5107519;28;20143;-34
2022/07/24 03:03:25;;;;;;;6.80;5.43;;;19.70;98.60;;;;;;5106258;28;20088;-35
2022/07/24 03:05:50;;;;;;;5.40;4.85;;;19.70;98.70;;;;;;5107878;28;20039;-35
2022/07/24 03:08:16;;;;;;;5.78;5.13;;;19.70;98.70;;;;;;5107049;28;20479;-36
2022/07/24 03:10:41;;;;;;;6.95;5.03;;;19.70;98.70;;;;;;5106857;28;20469;-35
2022/07/24 03:13:08;;;;;;;6.30;5.70;;;19.70;98.90;;;;;;5107740;28;20051;-35
2022/07/24 03:15:33;;;;;;;6.13;5.15;;;19.60;98.90;;;;;;5106536;28;20087;-35
2022/07/24 03:17:59;;;;;;;5.88;5.28;;;19.60;98.90;;;;;;5107093;28;20663;-35
2022/07/24 03:20:26;;;;;;;5.53;5.03;;;19.50;99.00;;;;;;5106089;28;20031;-35
2022/07/24 03:22:52;;;;;;;6.65;5.30;;;19.50;99.10;;;;;;5107252;28;20020;-35
2022/07/24 03:25:18;;;;;;;5.22;4.72;;;19.40;99.20;;;;;;5106332;28;20086;-35
2022/07/24 03:27:46;;;;;;;5.68;5.18;;;19.40;99.30;;;;;;5107288;28;20027;-34
2022/07/24 03:30:12;;;;;;;6.25;5.65;;;19.40;99.40;;;;;;5106815;28;20114;-35
2022/07/24 03:32:37;;;;;;;6.90;5.32;;;19.40;99.50;;;;;;5105329;28;20111;-35
2022/07/24 03:35:04;;;;;;;6.20;5.60;;;19.30;99.60;;;;;;5107030;28;20432;-35
2022/07/24 03:37:29;;;;;;;6.07;5.47;;;19.30;99.60;;;;;;5105890;28;20616;-35
2022/07/24 03:39:55;;;;;;;8.07;5.60;;;19.30;99.70;;;;;;5107277;28;20120;-35
2022/07/24 03:42:20;;;;;;;6.80;5.63;;;19.30;99.70;;;;;;5106640;28;20035;-35
2022/07/24 03:44:46;;;;;;;6.55;5.57;;;19.30;99.80;;;;;;5105508;28;20127;-35
2022/07/24 03:47:11;;;;;;;5.93;5.32;;;19.30;99.90;;;;;;5106607;28;20015;-35
2022/07/24 03:49:37;;;;;;;6.22;5.20;;;19.30;99.90;;;;;;5106573;28;20464;-33
2022/07/24 03:52:03;;;;;;;5.90;5.35;;;19.30;99.90;;;;;;5105910;28;20144;-35
2022/07/24 03:54:29;;;;;;;7.65;5.95;;;19.30;99.90;;;;;;5106179;28;20030;-34
2022/07/24 03:56:55;;;;;;;6.00;5.38;;;19.30;99.90;;;;;;5107267;28;20023;-34
2022/07/24 03:59:20;;;;;;;6.88;6.15;;;19.20;99.90;;;;;;5106111;28;20027;-34
2022/07/24 04:01:46;;;;;;;7.70;6.18;;;19.30;99.90;;;;;;5105849;28;20043;-34
2022/07/24 04:04:11;;;;;;;7.28;6.57;;;19.20;99.90;;;;;;5106939;28;20126;-35
2022/07/24 04:06:37;;;;;;;7.30;6.60;;;19.20;99.90;;;;;;5104870;28;20505;-34
2022/07/24 04:09:06;;;;;;;8.73;6.40;;;19.20;99.90;;;;;;5106489;28;20514;-35
2022/07/24 04:11:31;;;;;;;7.68;6.78;;;19.30;99.90;;;;;;5105910;28;20475;-35
2022/07/24 04:13:57;;;;;;;9.57;7.47;;;19.30;99.90;;;;;;5106262;28;20106;-34
2022/07/24 04:16:23;;;;;;;7.50;6.80;;;19.30;99.90;;;;;;5106192;28;20031;-35
2022/07/24 04:18:48;;;;;;;7.25;6.60;;;19.30;99.90;;;;;;5104712;28;20019;-35
2022/07/24 04:21:14;;;;;;;7.45;6.75;;;19.30;99.90;;;;;;5104897;28;20364;-35
2022/07/24 04:23:40;;;;;;;8.70;7.82;;;19.30;99.90;;;;;;5105236;28;20034;-35
2022/07/24 04:26:06;;;;;;;7.80;6.95;;;19.30;99.90;;;;;;5106771;28;20027;-34
2022/07/24 04:28:31;;;;;;;6.97;6.28;;;19.30;99.90;;;;;;5104986;28;20074;-34
2022/07/24 04:30:57;;;;;;;9.60;7.20;;;19.30;99.90;;;;;;5105833;28;20024;-35
2022/07/24 04:33:23;;;;;;;8.10;7.30;;;19.30;99.90;;;;;;5105706;28;20425;-34
2022/07/24 04:35:48;;;;;;;8.02;7.32;;;19.30;99.90;;;;;;5105002;28;20028;-34
2022/07/24 04:38:14;;;;;;;8.20;7.35;;;19.30;99.90;;;;;;5105477;28;20479;-34
2022/07/24 04:40:41;;;;;;;7.85;7.07;;;19.20;99.90;;;;;;5105025;28;20114;-35
2022/07/24 04:43:06;;;;;;;8.38;7.57;;;19.20;99.90;;;;;;5104765;28;20072;-34
2022/07/24 04:45:32;;;;;;;8.35;7.45;;;19.10;99.90;;;;;;5104852;28;20406;-35
2022/07/24 04:47:58;;;;;;;8.75;7.90;;;19.10;99.90;;;;;;5105022;28;20027;-35
2022/07/24 04:50:23;;;;;;;9.77;8.02;;;19.10;99.90;;;;;;5105255;28;20028;-34
2022/07/24 04:52:49;;;;;;;9.23;8.10;;;19.10;99.90;;;;;;5105607;28;20034;-34
2022/07/24 04:55:14;;;;;;;8.32;7.53;;;19.10;99.90;;;;;;5104269;28;20032;-34
2022/07/24 04:57:40;;;;;;;9.75;7.63;;;19.10;99.90;;;;;;5104918;28;20032;-35
2022/07/24 05:00:09;;;;;;;8.80;7.90;;;19.10;99.90;;;;;;5105454;28;20019;-35
2022/07/24 05:02:35;;;;;;;7.65;6.88;;;19.10;99.90;;;;;;5104110;28;20459;-34
2022/07/24 05:05:01;;;;;;;7.70;6.95;;;19.10;99.90;;;;;;5105067;28;20027;-34
2022/07/24 05:07:26;;;;;;;8.25;7.45;;;19.10;99.90;;;;;;5105278;28;20487;-34
2022/07/24 05:09:52;;;;;;;10.45;8.23;;;19.10;99.90;;;;;;5104435;28;20491;-34
2022/07/24 05:12:18;;;;;;;8.98;8.18;;;19.10;99.90;;;;;;5105168;28;20376;-33
2022/07/24 05:14:43;;;;;;;10.65;9.23;;;19.10;99.90;;;;;;5105301;28;20034;-34
2022/07/24 05:17:09;;;;;;;9.52;8.50;;;19.10;99.90;;;;;;5104701;28;20360;-34
2022/07/24 05:19:34;;;;;;;9.68;8.70;;;19.20;99.90;;;;;;5104638;28;20536;-34
2022/07/24 05:22:00;;;;;;;10.68;9.32;;;19.20;99.90;;;;;;5105107;28;20030;-34
2022/07/24 05:24:25;;;;;;;10.02;9.00;;;19.20;99.90;;;;;;5104072;28;20043;-35
2022/07/24 05:26:52;;;;;;;10.88;9.85;;;19.30;99.90;;;;;;5105798;28;20019;-34
2022/07/24 05:29:17;;;;;;;10.73;9.63;;;19.20;99.90;;;;;;5105020;28;20039;-34
2022/07/24 05:31:43;;;;;;;11.10;10.00;;;19.30;99.90;;;;;;5104610;28;20055;-35
2022/07/24 05:34:09;;;;;;;10.73;9.63;;;19.30;99.90;;;;;;5105087;28;20032;-34
2022/07/24 05:36:35;;;;;;;12.50;10.27;;;19.30;99.90;;;;;;5104424;28;20051;-34
2022/07/24 05:39:01;;;;;;;12.02;10.80;;;19.30;99.90;;;;;;5104930;28;20349;-35
2022/07/24 05:41:26;;;;;;;11.52;10.43;;;19.30;99.90;;;;;;5103897;28;20039;-35
2022/07/24 05:43:53;;;;;;;11.40;10.25;;;19.40;99.90;;;;;;5104851;28;20143;-35
2022/07/24 05:46:19;;;;;;;13.35;10.40;;;19.40;99.90;;;;;;5103644;28;20080;-35
2022/07/24 05:48:45;;;;;;;11.27;10.02;;;19.40;99.90;;;;;;5104923;28;20512;-38
2022/07/24 05:51:11;;;;;;;10.70;9.68;;;19.50;99.90;;;;;;5104863;28;20034;-33
2022/07/24 05:53:36;;;;;;;11.82;10.13;;;19.50;99.90;;;;;;5108612;28;20494;-34
2022/07/24 05:56:02;;;;;;;10.55;9.32;;;19.50;99.90;;;;;;5109652;28;20491;-34
2022/07/24 05:58:27;;;;;;;10.30;9.20;;;19.50;99.90;;;;;;5108132;28;20568;-34
2022/07/24 06:00:53;;;;;;;11.15;9.35;;;19.50;99.90;;;;;;5109197;28;20430;-36
2022/07/24 06:03:18;;;;;;;10.18;9.15;;;19.50;99.90;;;;;;5109191;28;20483;-34
2022/07/24 06:05:44;;;;;;;13.70;12.30;;;19.50;99.90;;;;;;5108152;28;20085;-34
2022/07/24 06:08:09;;;;;;;14.70;13.23;;;19.60;99.90;;;;;;5109230;28;20147;-34
2022/07/24 06:10:35;;;;;;;11.45;10.25;;;19.60;99.90;;;;;;5108422;28;20022;-34
2022/07/24 06:13:01;;;;;;;13.00;11.48;;;19.70;99.90;;;;;;5108472;28;20030;-34
2022/07/24 06:15:26;;;;;;;10.88;9.43;;;19.70;99.90;;;;;;5108060;28;20028;-34
2022/07/24 06:17:52;;;;;;;10.48;9.38;;;19.70;99.90;;;;;;5108439;28;20080;-34
2022/07/24 06:20:17;;;;;;;11.48;10.38;;;19.80;99.90;;;;;;5107633;28;20073;-34
2022/07/24 06:22:44;;;;;;;12.00;10.73;;;19.80;99.90;;;;;;5107283;28;20068;-35
2022/07/24 06:25:11;;;;;;;9.65;8.73;;;19.80;99.90;;;;;;5108539;28;20040;-35
2022/07/24 06:27:47;;;;;;;10.55;8.80;;;19.90;99.90;;;;;;5106836;28;20031;-34
2022/07/24 06:30:18;;;;;;;11.55;9.73;;;19.90;99.90;;;;;;5088391;28;20597;-35
2022/07/24 06:32:44;;;;;;;11.77;10.57;;;20.00;99.90;;;;;;5104256;28;20773;-35
2022/07/24 06:35:11;;;;;;;12.20;11.00;;;20.00;99.90;;;;;;5107634;28;20511;-35
2022/07/24 06:37:36;;;;;;;11.38;10.23;;;20.10;99.90;;;;;;5107350;28;20479;-35
2022/07/24 06:40:03;;;;;;;12.00;10.15;;;20.20;99.90;;;;;;5108400;28;20398;-34
2022/07/24 06:42:28;;;;;;;9.85;8.55;;;20.20;99.90;;;;;;5106654;28;20118;-35
2022/07/24 06:44:54;;;;;;;10.65;9.55;;;20.30;99.90;;;;;;5108035;28;20207;-34
2022/07/24 06:47:19;;;;;;;10.77;9.68;;;20.30;99.90;;;;;;5107949;28;20107;-35
2022/07/24 06:49:45;;;;;;;11.93;10.55;;;20.40;99.90;;;;;;5107094;28;20379;-35
2022/07/24 06:52:11;;;;;;;10.40;9.38;;;20.40;99.90;;;;;;5107911;28;20020;-35
2022/07/24 06:54:37;;;;;;;11.30;9.98;;;20.50;99.90;;;;;;5106708;28;20160;-36
2022/07/24 06:57:02;;;;;;;11.13;10.02;;;20.50;99.90;;;;;;5108195;28;20016;-35
2022/07/24 06:59:28;;;;;;;11.57;9.98;;;20.60;99.90;;;;;;5106834;28;20514;-35
2022/07/24 07:01:53;;;;;;;11.45;10.18;;;20.60;99.90;;;;;;5107287;28;20679;-35
2022/07/24 07:04:19;;;;;;;11.00;9.35;;;20.60;99.90;;;;;;5105970;28;20473;-34
2022/07/24 07:06:44;;;;;;;9.10;8.20;;;20.70;99.90;;;;;;5107133;28;20016;-34
2022/07/24 07:09:11;;;;;;;9.52;8.18;;;20.80;99.90;;;;;;5106716;28;20039;-35
2022/07/24 07:11:39;;;;;;;8.05;7.22;;;20.80;99.90;;;;;;5107163;28;20390;-34
2022/07/24 07:14:05;;;;;;;8.55;7.28;;;20.80;99.90;;;;;;5107119;28;20026;-35
2022/07/24 07:16:30;;;;;;;6.65;6.05;;;20.90;99.90;;;;;;5106608;28;20012;-34
2022/07/24 07:18:56;;;;;;;7.05;6.30;;;20.90;99.90;;;;;;5107340;28;20099;-35
2022/07/24 07:21:21;;;;;;;6.40;5.60;;;21.00;99.90;;;;;;5107139;28;20019;-34
2022/07/24 07:23:47;;;;;;;6.65;6.00;;;21.00;99.90;;;;;;5105784;28;20372;-35
2022/07/24 07:26:12;;;;;;;6.30;5.60;;;21.10;99.90;;;;;;5107110;28;20502;-35
2022/07/24 07:28:38;;;;;;;7.30;6.38;;;21.20;99.90;;;;;;5107144;28;20043;-35
2022/07/24 07:31:04;;;;;;;7.85;6.38;;;21.20;99.90;;;;;;5107103;28;20027;-35
2022/07/24 07:33:29;;;;;;;5.25;4.47;;;21.30;99.90;;;;;;5106607;28;20516;-34
2022/07/24 07:35:55;;;;;;;4.25;3.85;;;21.40;99.90;;;;;;5107162;28;20482;-35
2022/07/24 07:38:20;;;;;;;4.63;4.15;;;21.40;99.80;;;;;;5106046;28;20806;-35
2022/07/24 07:40:46;;;;;;;4.10;3.45;;;21.50;99.60;;;;;;5106444;28;20020;-34
2022/07/24 07:43:11;;;;;;;4.20;3.80;;;21.50;99.40;;;;;;5106775;28;20073;-34
2022/07/24 07:45:37;;;;;;;3.97;3.38;;;21.60;99.10;;;;;;5105557;28;20509;-34
2022/07/24 07:48:03;;;;;;;3.20;2.85;;;21.70;98.40;;;;;;5107081;28;20023;-33
2022/07/24 07:50:28;;;;;;;3.50;2.88;;;21.80;97.90;;;;;;5106215;28;20028;-35
2022/07/24 07:52:54;;;;;;;2.88;2.58;;;21.80;97.70;;;;;;5106467;28;20020;-35
2022/07/24 07:55:20;;;;;;;3.45;2.85;;;21.90;97.20;;;;;;5106341;28;20378;-35
2022/07/24 07:57:45;;;;;;;3.13;2.20;;;22.00;96.80;;;;;;5105536;28;20038;-35
2022/07/24 08:00:11;;;;;;;2.22;2.03;;;22.00;96.90;;;;;;5106705;28;20055;-35
2022/07/24 08:02:37;;;;;;;2.53;2.25;;;22.00;96.70;;;;;;5106358;28;20034;-36
2022/07/24 08:05:03;;;;;;;2.90;2.17;;;22.10;96.50;;;;;;5106195;28;20031;-35
2022/07/24 08:07:29;;;;;;;2.63;2.40;;;22.10;96.50;;;;;;5106650;28;20230;-33
2022/07/24 08:09:54;;;;;;;2.58;2.20;;;22.20;96.20;;;;;;5106299;28;20506;-36
2022/07/24 08:12:20;;;;;;;2.63;2.42;;;22.20;96.20;;;;;;5105228;28;20409;-35
2022/07/24 08:14:45;;;;;;;2.60;2.33;;;22.30;96.20;;;;;;5105331;28;20475;-35
2022/07/24 08:17:11;;;;;;;3.03;2.72;;;22.30;96.20;;;;;;5105953;28;20467;-34
2022/07/24 08:19:37;;;;;;;3.03;2.72;;;22.40;95.90;;;;;;5105038;28;20028;-34
2022/07/24 08:22:04;;;;;;;4.25;3.10;;;22.50;95.80;;;;;;5106496;28;20046;-36
2022/07/24 08:24:32;;;;;;;3.25;2.80;;;22.60;95.60;;;;;;5105308;28;20130;-35
2022/07/24 08:26:58;;;;;;;5.93;4.15;;;22.60;95.40;;;;;;5104700;28;20030;-34
2022/07/24 08:29:24;;;;;;;4.10;3.42;;;22.60;95.20;;;;;;5106270;28;20035;-37
2022/07/24 08:31:49;;;;;;;4.65;3.40;;;22.60;95.20;;;;;;5105694;28;20023;-34
2022/07/24 08:34:15;;;;;;;3.15;2.85;;;22.70;95.20;;;;;;5105279;28;20050;-35
2022/07/24 08:36:41;;;;;;;5.00;3.03;;;22.70;95.10;;;;;;5105764;28;20031;-34
2022/07/24 08:39:06;;;;;;;3.83;3.40;;;22.80;95.10;;;;;;5105720;28;20110;-35
2022/07/24 08:41:35;;;;;;;4.97;3.47;;;22.80;95.10;;;;;;5104648;28;20142;-34
2022/07/24 08:44:03;;;;;;;3.95;3.60;;;22.90;95.00;;;;;;5105389;28;20036;-35
2022/07/24 08:46:28;;;;;;;3.85;3.55;;;23.00;94.90;;;;;;5104907;28;20501;-35
2022/07/24 08:48:56;;;;;;;3.53;3.22;;;23.00;94.40;;;;;;5105308;28;20023;-34
2022/07/24 08:51:22;;;;;;;3.80;3.30;;;23.00;94.50;;;;;;5105314;28;20486;-34
2022/07/24 08:53:49;;;;;;;3.05;2.85;;;23.00;94.40;;;;;;5105108;28;20071;-35
2022/07/24 08:56:16;;;;;;;2.97;2.65;;;23.10;94.40;;;;;;5104202;28;20509;-34
2022/07/24 08:58:41;;;;;;;4.07;3.30;;;23.20;94.40;;;;;;5105786;28;20024;-36
2022/07/24 09:01:08;;;;;;;3.17;2.97;;;23.20;94.10;;;;;;5104781;28;20379;-35
2022/07/24 09:03:41;;;;;;;3.20;3.00;;;23.30;94.10;;;;;;5105014;28;20483;-35
2022/07/24 09:06:09;;;;;;;2.90;2.70;;;23.30;94.10;;;;;;5105280;28;20070;-35
2022/07/24 09:08:34;;;;;;;2.60;2.40;;;23.40;94.20;;;;;;5103987;28;20024;-35
2022/07/24 09:11:05;;;;;;;3.28;2.95;;;23.40;94.10;;;;;;5105756;28;20493;-35
2022/07/24 09:16:24;;;;;;;2.60;2.40;;;23.50;93.80;;;;;;5104536;28;20104;-36
2022/07/24 09:19:01;;;;;;;3.10;2.80;;;23.60;93.50;;;;;;5104250;28;20319;-35
2022/07/24 09:21:26;;;;;;;5.07;2.90;;;23.60;93.50;;;;;;5105367;28;20119;-36
2022/07/24 09:23:52;;;;;;;2.78;2.50;;;23.70;93.30;;;;;;5103799;28;20035;-34
2022/07/24 09:26:17;;;;;;;3.35;2.78;;;23.80;93.30;;;;;;5106118;28;20115;-35
2022/07/24 09:28:53;;;;;;;3.53;3.03;;;23.80;92.90;;;;;;5112551;28;20039;-35
2022/07/24 09:31:21;;;;;;;3.47;2.60;;;23.90;92.80;;;;;;5111943;28;20106;-36
2022/07/24 09:33:46;;;;;;;2.97;2.75;;;24.00;92.80;;;;;;5111960;28;20487;-35
2022/07/24 09:36:18;;;;;;;2.90;2.30;;;24.00;92.70;;;;;;5111887;28;20060;-34
2022/07/24 09:38:49;;;;;;;2.97;2.58;;;24.10;92.70;;;;;;5111880;28;20825;-35
2022/07/24 09:41:20;;;;;;;3.33;2.88;;;24.10;92.60;;;;;;5111855;28;20024;-35
2022/07/24 09:43:59;;;;;;;3.15;2.80;;;24.20;92.50;;;;;;5110723;28;20053;-35
2022/07/24 09:46:26;;;;;;;3.05;2.60;;;24.20;92.40;;;;;;5111925;28;20024;-35
2022/07/24 09:48:53;;;;;;;2.95;2.75;;;24.30;92.40;;;;;;5111663;28;20062;-34
2022/07/24 09:51:19;;;;;;;2.45;2.25;;;24.40;92.40;;;;;;5111139;28;20212;-36
2022/07/24 09:53:46;;;;;;;2.58;2.38;;;24.50;92.30;;;;;;5111955;28;20028;-35
2022/07/24 09:56:13;;;;;;;2.63;2.33;;;24.50;92.20;;;;;;5112559;28;20033;-34
2022/07/24 09:58:45;;;;;;;3.28;2.70;;;24.60;92.20;;;;;;5111402;28;20030;-36
2022/07/24 10:01:13;;;;;;;3.10;2.50;;;24.60;92.00;;;;;;5112397;28;20051;-36
2022/07/24 10:03:41;;;;;;;2.60;2.40;;;24.60;91.90;;;;;;5111219;28;20062;-35
2022/07/24 10:06:10;;;;;;;2.40;2.20;;;24.70;91.70;;;;;;5111094;28;20156;-34
2022/07/24 10:08:39;;;;;;;2.30;2.10;;;24.70;91.50;;;;;;5111468;28;20011;-35
2022/07/24 10:11:05;;;;;;;2.10;2.00;;;24.80;91.40;;;;;;5111583;28;20364;-35
2022/07/24 10:13:31;;;;;;;2.35;2.05;;;24.90;91.30;;;;;;5110285;28;20027;-37
2022/07/24 10:16:12;;;;;;;2.55;2.20;;;24.90;91.40;;;;;;5111466;28;20026;-37
2022/07/24 10:18:52;;;;;;;4.38;2.40;;;25.00;90.70;;;;;;5110449;28;20031;-35
2022/07/24 10:21:20;;;;;;;2.13;1.92;;;25.10;90.90;;;;;;5111290;28;20467;-35
2022/07/24 10:24:05;;;;;;;2.63;2.42;;;25.20;90.90;;;;;;5111379;28;20035;-36
2022/07/24 10:26:51;;;;;;;2.30;2.10;;;25.20;90.90;;;;;;5108646;28;20039;-35
2022/07/24 10:29:22;;;;;;;2.20;2.00;;;25.20;90.80;;;;;;5111287;28;20024;-36
2022/07/24 10:31:51;;;;;;;2.15;1.95;;;25.20;90.70;;;;;;5110983;28;20031;-35
2022/07/24 10:34:41;;;;;;;2.00;1.80;;;25.20;90.50;;;;;;5110215;28;20100;-35
2022/07/24 10:37:10;;;;;;;2.20;1.80;;;25.20;90.60;;;;;;5101141;28;20088;-35
2022/07/24 10:39:59;;;;;;;1.70;1.58;;;25.30;90.60;;;;;;5105625;28;20356;-34
2022/07/24 10:42:25;;;;;;;3.00;2.50;;;25.30;90.70;;;;;;5098443;28;20023;-35
2022/07/24 10:45:17;;;;;;;2.15;1.95;;;25.30;90.70;;;;;;5107900;28;20035;-35
2022/07/24 10:47:43;;;;;;;4.32;2.40;;;25.40;90.20;;;;;;5099173;28;20062;-35
2022/07/24 10:50:09;;;;;;;2.65;2.30;;;25.50;89.60;;;;;;5108235;28;20031;-36
2022/07/24 10:52:39;;;;;;;3.25;2.28;;;25.50;89.20;;;;;;5107542;28;20362;-35
2022/07/24 10:55:31;;;;;;;2.40;2.20;;;25.50;89.00;;;;;;5106852;28;20395;-35
2022/07/24 10:58:01;;;;;;;1.80;1.70;;;25.60;89.50;;;;;;5098651;28;20065;-36
2022/07/24 11:00:36;;;;;;;1.80;1.70;;;25.60;89.80;;;;;;5107445;28;20123;-34
2022/07/24 11:03:05;;;;;;;1.95;1.85;;;25.70;89.90;;;;;;5097395;28;20063;-35
2022/07/24 11:05:35;;;;;;;2.35;2.10;;;25.70;89.40;;;;;;5106759;28;20064;-35
2022/07/24 11:08:44;;;;;;;1.80;1.70;;;25.80;89.20;;;;;;5107225;28;20031;-35
2022/07/24 11:11:12;;;;;;;1.67;1.58;;;25.90;89.40;;;;;;5088909;28;20042;-35
2022/07/24 11:13:37;;;;;;;1.90;1.80;;;25.90;89.00;;;;;;5106902;28;20084;-35
2022/07/24 11:16:12;;;;;;;3.35;2.08;;;25.90;88.60;;;;;;5107158;28;20024;-34
2022/07/24 11:18:39;;;;;;;2.05;1.90;;;25.90;87.80;;;;;;5107261;28;20034;-35
2022/07/24 11:21:05;;;;;;;2.10;2.00;;;25.90;87.80;;;;;;5107364;28;20088;-35
2022/07/24 11:23:31;;;;;;;3.00;1.80;;;25.90;87.80;;;;;;5106289;28;20454;-35
2022/07/24 11:26:30;;;;;;;1.92;1.80;;;25.90;87.50;;;;;;5107119;28;20574;-34
2022/07/24 11:29:26;;;;;;;3.00;1.80;;;26.00;87.80;;;;;;5096355;28;20102;-37
2022/07/24 11:31:58;;;;;;;2.10;1.90;;;26.10;87.90;;;;;;5107108;28;20502;-42
2022/07/24 11:34:25;;;;;;;1.97;1.87;;;26.10;87.70;;;;;;5106813;28;20027;-35
2022/07/24 11:36:52;;;;;;;1.88;1.77;;;26.20;87.90;;;;;;5106519;28;20257;-35
2022/07/24 11:39:19;;;;;;;1.95;1.77;;;26.30;88.10;;;;;;5107190;28;20088;-35
2022/07/24 11:41:50;;;;;;;1.60;1.50;;;26.40;88.00;;;;;;5106617;28;20031;-35
2022/07/24 11:44:30;;;;;;;1.80;1.70;;;26.40;87.80;;;;;;5094494;28;20467;-35
2022/07/24 11:46:59;;;;;;;2.00;1.90;;;26.40;87.80;;;;;;5107356;28;20020;-35
2022/07/24 11:49:26;;;;;;;2.17;2.00;;;26.40;87.60;;;;;;5106490;28;20062;-35
2022/07/24 11:51:53;;;;;;;1.70;1.60;;;26.50;87.10;;;;;;5105916;28;20035;-34
2022/07/24 11:54:24;;;;;;;1.90;1.80;;;26.50;87.20;;;;;;5106630;28;20028;-36
2022/07/24 11:56:51;;;;;;;1.90;1.70;;;26.50;87.20;;;;;;5106520;28;20032;-35
2022/07/24 11:59:23;;;;;;;2.30;2.05;;;26.60;86.70;;;;;;5106286;28;20466;-34
2022/07/24 12:01:49;;;;;;;;;;;26.70;86.50;;;;;;5107279;28;20463;-35
2022/07/24 12:04:19;;;;;;;2.00;1.80;;;26.70;86.00;;;;;;5105141;28;19916;-35
2022/07/24 12:06:45;;;;;;;3.08;2.00;;;26.70;86.20;;;;;;5106401;28;20024;-34
2022/07/24 12:09:11;;;;;;;2.20;2.00;;;26.70;86.40;;;;;;5106153;28;20046;-35
2022/07/24 12:11:37;;;;;;;2.65;2.03;;;26.80;85.90;;;;;;5105425;28;20032;-34
2022/07/24 12:14:15;;;;;;;2.00;1.80;;;26.80;85.90;;;;;;5105965;28;20023;-35
2022/07/24 12:16:41;;;;;;;1.83;1.70;;;26.80;86.10;;;;;;5085706;28;20016;-34
2022/07/24 12:19:18;;;;;;;2.13;1.95;;;26.80;86.00;;;;;;5099713;28;20046;-35
2022/07/24 12:21:45;;;;;;;1.92;1.80;;;26.80;85.50;;;;;;5105989;28;20024;-34
2022/07/24 12:24:12;;;;;;;3.58;2.10;;;26.80;86.00;;;;;;5105870;28;20103;-34
2022/07/24 12:26:55;;;;;;;1.70;1.60;;;26.90;86.30;;;;;;5104824;28;20058;-34
2022/07/24 12:29:23;;;;;;;2.35;1.92;;;26.90;86.40;;;;;;5105903;28;20027;-35
2022/07/24 12:31:49;;;;;;;1.80;1.70;;;26.90;86.00;;;;;;5106229;28;20023;-34
2022/07/24 12:34:15;;;;;;;1.90;1.80;;;26.90;86.20;;;;;;5105367;28;20015;-34
2022/07/24 12:36:41;;;;;;;2.13;1.70;;;27.00;86.30;;;;;;5105860;28;20027;-34
2022/07/24 12:39:07;;;;;;;1.73;1.63;;;27.10;86.10;;;;;;5104781;28;20031;-35
2022/07/24 12:41:45;;;;;;;2.88;1.83;;;27.20;85.70;;;;;;5105916;28;20115;-36
2022/07/24 12:44:11;;;;;;;1.70;1.60;;;27.30;85.50;;;;;;5106207;28;20080;-36
2022/07/24 12:46:41;;;;;;;1.80;1.70;;;27.30;85.50;;;;;;5104747;28;20061;-36
2022/07/24 12:49:08;;;;;;;2.05;1.85;;;27.40;85.50;;;;;;5105369;28;20444;-35